createdAt,value
2023-02-23T00:02:08.616Z,8.80
2023-02-23T00:04:38.041Z,8.80
2023-02-23T00:07:07.348Z,8.80
2023-02-23T00:09:36.116Z,8.80
2023-02-23T00:12:08.592Z,8.70
2023-02-23T00:14:38.670Z,8.80
2023-02-23T00:17:13.981Z,8.80
2023-02-23T00:19:43.402Z,8.70
2023-02-23T00:22:12.819Z,8.70
2023-02-23T00:24:42.318Z,8.80
2023-02-23T00:27:10.388Z,8.80
2023-02-23T00:29:40.330Z,8.80
2023-02-23T00:32:08.734Z,8.90
2023-02-23T00:34:37.916Z,9.00
2023-02-23T00:37:07.296Z,9.10
2023-02-23T00:39:36.533Z,9.20
2023-02-23T00:42:06.661Z,9.30
2023-02-23T00:44:35.354Z,9.40
2023-02-23T00:47:08.937Z,9.50
2023-02-23T00:49:36.843Z,9.40
2023-02-23T00:52:05.784Z,9.50
2023-02-23T00:54:33.677Z,9.50
2023-02-23T00:57:03.449Z,9.30
2023-02-23T00:59:31.532Z,9.10
2023-02-23T01:02:00.119Z,9.00
2023-02-23T01:04:28.110Z,8.90
2023-02-23T01:06:57.767Z,8.80
2023-02-23T01:09:29.417Z,8.70
2023-02-23T01:12:07.668Z,8.60
2023-02-23T01:14:37.958Z,8.60
2023-02-23T01:17:06.054Z,8.60
2023-02-23T01:19:34.837Z,8.50
2023-02-23T01:22:04.579Z,8.20
2023-02-23T01:24:32.554Z,8.10
2023-02-23T01:27:01.761Z,8.10
2023-02-23T01:29:29.728Z,8.00
2023-02-23T01:31:57.735Z,8.00
2023-02-23T01:34:26.207Z,8.00
2023-02-23T01:36:54.071Z,8.00
2023-02-23T01:39:22.277Z,8.10
2023-02-23T01:41:54.071Z,8.00
2023-02-23T01:45:20.257Z,8.00
2023-02-23T01:47:49.247Z,7.90
2023-02-23T01:50:19.791Z,7.80
2023-02-23T01:52:51.336Z,7.80
2023-02-23T01:55:24.386Z,7.80
2023-02-23T01:58:03.113Z,7.80
2023-02-23T02:00:36.627Z,7.80
2023-02-23T02:03:15.695Z,7.80
2023-02-23T02:05:46.241Z,7.80
2023-02-23T02:08:19.297Z,7.80
2023-02-23T02:10:47.736Z,7.90
2023-02-23T02:13:24.741Z,7.80
2023-02-23T02:16:24.552Z,7.80
2023-02-23T02:19:21.689Z,7.90
2023-02-23T02:22:26.310Z,7.90
2023-02-23T02:25:36.902Z,8.00
2023-02-23T02:28:59.618Z,8.00
2023-02-23T02:32:28.654Z,8.10
2023-02-23T02:35:40.885Z,8.20
2023-02-23T02:38:31.603Z,8.10
2023-02-23T02:41:06.910Z,8.10
2023-02-23T02:43:47.302Z,8.10
2023-02-23T02:46:21.188Z,8.10
2023-02-23T02:49:01.341Z,8.10
2023-02-23T02:51:40.810Z,8.10
2023-02-23T02:54:21.972Z,8.10
2023-02-23T02:56:54.508Z,8.10
2023-02-23T02:59:40.162Z,8.10
2023-02-23T03:02:36.740Z,8.10
2023-02-23T03:05:31.812Z,8.10
2023-02-23T03:08:35.541Z,8.10
2023-02-23T03:11:25.920Z,8.10
2023-02-23T03:14:33.579Z,8.10
2023-02-23T03:17:33.318Z,8.10
2023-02-23T03:20:34.306Z,8.10
2023-02-23T03:23:35.073Z,8.10
2023-02-23T03:26:30.857Z,8.10
2023-02-23T03:29:24.219Z,8.20
2023-02-23T03:32:22.299Z,8.20
2023-02-23T03:35:17.081Z,8.20
2023-02-23T03:38:11.585Z,8.20
2023-02-23T03:41:02.485Z,8.20
2023-02-23T03:43:55.822Z,8.20
2023-02-23T03:46:45.443Z,8.20
2023-02-23T03:49:36.139Z,8.30
2023-02-23T03:52:32.418Z,8.30
2023-02-23T03:55:24.485Z,8.30
2023-02-23T03:58:16.504Z,8.30
2023-02-23T04:01:07.707Z,8.40
2023-02-23T04:03:59.736Z,8.30
2023-02-23T04:06:51.712Z,8.30
2023-02-23T04:09:37.118Z,8.40
2023-02-23T04:12:30.233Z,8.50
2023-02-23T04:15:06.983Z,8.50
2023-02-23T04:17:36.615Z,8.50
2023-02-23T04:20:06.992Z,8.70
2023-02-23T04:22:35.481Z,8.90
2023-02-23T04:25:05.941Z,9.00
2023-02-23T04:27:33.830Z,9.10
2023-02-23T04:30:03.768Z,9.30
2023-02-23T04:32:32.142Z,9.30
2023-02-23T04:35:01.396Z,9.40
2023-02-23T04:37:29.355Z,9.50
2023-02-23T04:39:57.202Z,9.50
2023-02-23T04:42:25.054Z,9.50
2023-02-23T04:44:53.308Z,9.60
2023-02-23T04:47:21.188Z,9.60
2023-02-23T04:49:49.055Z,9.70
2023-02-23T04:52:18.366Z,9.70
2023-02-23T04:54:46.257Z,9.60
2023-02-23T04:57:14.130Z,9.70
2023-02-23T04:59:42.409Z,9.70
2023-02-23T05:02:10.334Z,9.70
2023-02-23T05:04:38.529Z,9.70
2023-02-23T05:07:06.937Z,9.70
2023-02-23T05:09:36.248Z,9.70
2023-02-23T05:12:04.554Z,9.80
2023-02-23T05:14:32.634Z,9.70
2023-02-23T05:17:00.541Z,9.80
2023-02-23T05:19:28.647Z,9.70
2023-02-23T05:21:56.562Z,9.70
2023-02-23T05:24:25.635Z,9.70
2023-02-23T05:26:54.932Z,9.60
2023-02-23T05:29:22.958Z,9.60
2023-02-23T05:31:50.934Z,9.60
2023-02-23T05:34:19.252Z,9.60
2023-02-23T05:36:47.287Z,9.60
2023-02-23T05:39:15.157Z,9.60
2023-02-23T05:41:43.074Z,9.50
2023-02-23T05:44:12.606Z,9.40
2023-02-23T05:46:40.532Z,9.40
2023-02-23T05:49:08.546Z,9.40
2023-02-23T05:51:36.419Z,9.30
2023-02-23T05:54:04.785Z,9.30
2023-02-23T05:56:32.991Z,9.20
2023-02-23T05:59:02.378Z,9.10
2023-02-23T06:01:33.080Z,9.10
2023-02-23T06:04:01.056Z,9.10
2023-02-23T06:06:29.203Z,9.10
2023-02-23T06:08:57.160Z,9.10
2023-02-23T06:11:25.023Z,9.10
2023-02-23T06:13:53.140Z,9.00
2023-02-23T06:16:21.773Z,9.00
2023-02-23T06:18:51.008Z,9.10
2023-02-23T06:21:19.429Z,9.10
2023-02-23T06:23:47.459Z,9.10
2023-02-23T06:26:15.435Z,9.10
2023-02-23T06:28:43.369Z,9.10
2023-02-23T06:31:12.151Z,9.10
2023-02-23T06:33:40.880Z,9.10
2023-02-23T06:36:11.259Z,9.10
2023-02-23T06:38:39.287Z,9.00
2023-02-23T06:41:11.726Z,9.00
2023-02-23T06:43:39.680Z,9.00
2023-02-23T06:46:07.590Z,9.00
2023-02-23T06:48:36.210Z,9.00
2023-02-23T06:51:04.636Z,9.00
2023-02-23T06:53:34.280Z,9.00
2023-02-23T06:56:03.442Z,9.00
2023-02-23T06:58:31.798Z,8.90
2023-02-23T07:01:00.286Z,9.00
2023-02-23T07:03:28.171Z,9.00
2023-02-23T07:05:56.079Z,9.00
2023-02-23T07:08:24.009Z,9.10
2023-02-23T07:10:53.177Z,9.10
2023-02-23T07:13:21.949Z,9.20
2023-02-23T07:15:50.010Z,9.20
2023-02-23T07:18:17.883Z,9.30
2023-02-23T07:20:46.635Z,9.40
2023-02-23T07:23:14.513Z,9.40
2023-02-23T07:25:42.393Z,9.50
2023-02-23T07:28:14.067Z,9.60
2023-02-23T07:30:42.233Z,9.60
2023-02-23T07:33:10.318Z,9.50
2023-02-23T07:35:38.218Z,9.60
2023-02-23T07:38:07.372Z,9.60
2023-02-23T07:40:35.293Z,9.60
2023-02-23T07:43:03.148Z,9.70
2023-02-23T07:45:32.378Z,9.80
2023-02-23T07:48:00.777Z,9.90
2023-02-23T07:50:28.712Z,9.90
2023-02-23T07:52:56.929Z,10.00
2023-02-23T07:55:24.914Z,10.00
2023-02-23T07:57:52.940Z,9.90
2023-02-23T08:00:21.634Z,9.80
2023-02-23T08:02:50.793Z,9.80
2023-02-23T08:05:18.663Z,9.70
2023-02-23T08:07:46.695Z,9.70
2023-02-23T08:10:15.093Z,9.80
2023-02-23T08:12:43.917Z,9.80
2023-02-23T08:15:12.759Z,9.70
2023-02-23T08:17:41.278Z,9.80
2023-02-23T08:20:12.625Z,10.00
2023-02-23T08:22:49.460Z,10.10
2023-02-23T08:25:18.623Z,10.20
2023-02-23T08:27:48.287Z,10.40
2023-02-23T08:30:16.696Z,10.60
2023-02-23T08:32:44.986Z,10.70
2023-02-23T08:35:15.316Z,10.70
2023-02-23T08:37:43.344Z,10.80
2023-02-23T08:40:15.506Z,10.90
2023-02-23T08:42:43.779Z,11.00
2023-02-23T08:45:13.175Z,11.20
2023-02-23T08:47:41.271Z,11.20
2023-02-23T08:50:11.133Z,11.30
2023-02-23T08:52:42.378Z,11.40
2023-02-23T08:55:13.982Z,11.50
2023-02-23T08:57:42.310Z,11.50
2023-02-23T09:00:14.211Z,11.60
2023-02-23T09:02:42.273Z,11.60
2023-02-23T09:05:11.760Z,11.50
2023-02-23T09:07:45.180Z,11.40
2023-02-23T09:10:16.027Z,11.30
2023-02-23T09:12:44.526Z,11.20
2023-02-23T09:15:13.060Z,11.10
2023-02-23T09:17:42.762Z,11.10
2023-02-23T09:20:13.607Z,11.10
2023-02-23T09:22:48.508Z,11.20
2023-02-23T09:25:19.080Z,11.10
2023-02-23T09:27:47.342Z,11.10
2023-02-23T09:30:17.927Z,11.20
2023-02-23T09:32:46.464Z,11.30
2023-02-23T09:35:17.949Z,11.50
2023-02-23T09:37:49.214Z,11.70
2023-02-23T09:40:21.835Z,11.80
2023-02-23T09:43:01.562Z,12.10
2023-02-23T09:45:41.651Z,12.00
2023-02-23T09:48:20.253Z,12.10
2023-02-23T09:50:53.795Z,12.10
2023-02-23T09:53:39.123Z,12.10
2023-02-23T09:56:14.583Z,12.10
2023-02-23T09:58:42.854Z,12.20
2023-02-23T10:01:45.906Z,12.20
2023-02-23T10:04:23.334Z,12.30
2023-02-23T10:07:01.248Z,12.50
2023-02-23T10:09:59.485Z,12.50
2023-02-23T10:12:36.126Z,12.50
2023-02-23T10:15:27.766Z,12.30
2023-02-23T10:18:13.639Z,12.40
2023-02-23T10:20:51.960Z,12.40
2023-02-23T10:23:31.254Z,12.30
2023-02-23T10:26:04.797Z,12.30
2023-02-23T10:28:37.671Z,12.30
2023-02-23T10:31:28.461Z,12.20
2023-02-23T10:34:03.864Z,12.20
2023-02-23T10:36:39.003Z,12.10
2023-02-23T10:39:09.944Z,12.20
2023-02-23T10:41:40.556Z,12.30
2023-02-23T10:44:20.131Z,12.40
2023-02-23T10:46:55.807Z,12.60
2023-02-23T10:49:30.768Z,12.70
2023-02-23T10:52:02.781Z,12.70
2023-02-23T10:54:43.946Z,12.70
2023-02-23T10:57:24.597Z,12.70
2023-02-23T11:00:27.664Z,12.70
2023-02-23T11:02:58.280Z,12.70
2023-02-23T11:05:44.281Z,12.50
2023-02-23T11:08:25.159Z,12.50
2023-02-23T11:11:19.809Z,12.40
2023-02-23T11:13:51.355Z,12.30
2023-02-23T11:16:22.748Z,12.20
2023-02-23T11:18:56.218Z,12.10
2023-02-23T11:21:33.355Z,12.10
2023-02-23T11:24:18.087Z,12.10
2023-02-23T11:26:49.665Z,12.10
2023-02-23T11:29:33.383Z,12.00
2023-02-23T11:32:10.192Z,12.10
2023-02-23T11:34:40.719Z,12.20
2023-02-23T11:37:23.059Z,12.20
2023-02-23T11:39:57.356Z,12.30
2023-02-23T11:42:27.888Z,12.30
2023-02-23T11:45:08.623Z,12.30
2023-02-23T11:47:43.197Z,12.30
2023-02-23T11:50:25.587Z,12.30
2023-02-23T11:53:05.089Z,12.30
2023-02-23T11:55:37.710Z,12.30
2023-02-23T11:58:13.128Z,12.30
2023-02-23T12:00:43.689Z,12.40
2023-02-23T12:03:25.866Z,12.40
2023-02-23T12:05:59.124Z,12.40
2023-02-23T12:08:41.148Z,12.40
2023-02-23T12:11:18.348Z,12.30
2023-02-23T12:13:53.870Z,12.40
2023-02-23T12:16:34.152Z,12.30
2023-02-23T12:19:11.362Z,12.30
2023-02-23T12:21:46.083Z,12.10
2023-02-23T12:24:23.998Z,12.00
2023-02-23T12:26:58.912Z,12.00
2023-02-23T12:29:34.806Z,11.80
2023-02-23T12:32:11.007Z,11.70
2023-02-23T12:34:48.599Z,11.70
2023-02-23T12:37:36.977Z,11.60
2023-02-23T12:40:16.978Z,11.70
2023-02-23T12:42:55.990Z,11.70
2023-02-23T12:45:34.848Z,11.60
2023-02-23T12:48:20.011Z,11.60
2023-02-23T12:50:54.178Z,11.60
2023-02-23T12:53:29.672Z,11.50
2023-02-23T12:56:23.967Z,11.50
2023-02-23T12:59:05.183Z,11.50
2023-02-23T13:01:39.192Z,11.50
2023-02-23T13:04:36.511Z,11.40
2023-02-23T13:07:14.398Z,11.40
2023-02-23T13:09:56.617Z,11.40
2023-02-23T13:12:42.081Z,11.40
2023-02-23T13:15:24.830Z,11.40
2023-02-23T13:18:03.346Z,11.40
2023-02-23T13:20:40.691Z,11.50
2023-02-23T13:23:26.258Z,11.50
2023-02-23T13:26:11.511Z,11.60
2023-02-23T13:28:56.480Z,11.40
2023-02-23T13:31:28.714Z,11.40
2023-02-23T13:34:00.899Z,11.50
2023-02-23T13:36:34.297Z,11.60
2023-02-23T13:39:45.144Z,11.40
2023-02-23T13:42:42.272Z,11.40
2023-02-23T13:45:42.312Z,11.50
2023-02-23T13:48:29.102Z,11.60
2023-02-23T13:51:06.976Z,11.60
2023-02-23T13:53:43.560Z,11.50
2023-02-23T13:56:18.777Z,11.40
2023-02-23T13:58:49.567Z,11.40
2023-02-23T14:01:23.220Z,11.40
2023-02-23T14:03:57.026Z,11.30
2023-02-23T14:06:29.361Z,11.30
2023-02-23T14:09:01.652Z,11.20
2023-02-23T14:11:39.473Z,11.20
2023-02-23T14:14:07.727Z,11.10
2023-02-23T14:16:37.105Z,11.00
2023-02-23T14:19:31.575Z,11.00
2023-02-23T14:22:06.065Z,11.00
2023-02-23T14:24:35.466Z,11.00
2023-02-23T14:27:40.454Z,11.00
2023-02-23T14:30:27.212Z,11.00
2023-02-23T14:32:56.176Z,11.00
2023-02-23T14:35:48.791Z,11.00
2023-02-23T14:38:47.628Z,11.00
2023-02-23T14:41:23.565Z,11.00
2023-02-23T14:43:56.136Z,11.10
2023-02-23T14:46:26.445Z,11.00
2023-02-23T14:49:01.526Z,11.00
2023-02-23T14:51:42.013Z,11.00
2023-02-23T14:54:23.486Z,10.90
2023-02-23T14:56:56.669Z,10.90
2023-02-23T14:59:27.914Z,10.90
2023-02-23T15:02:00.653Z,10.90
2023-02-23T15:04:31.469Z,10.90
2023-02-23T15:07:03.186Z,10.90
2023-02-23T15:09:38.497Z,10.90
2023-02-23T15:12:20.775Z,10.80
2023-02-23T15:14:50.809Z,10.80
2023-02-23T15:17:23.244Z,10.80
2023-02-23T15:20:09.585Z,10.80
2023-02-23T15:22:44.060Z,10.80
2023-02-23T15:25:18.179Z,10.80
2023-02-23T15:27:49.115Z,10.70
2023-02-23T15:30:30.845Z,10.70
2023-02-23T15:33:04.817Z,10.70
2023-02-23T15:35:45.205Z,10.70
2023-02-23T15:38:41.957Z,10.70
2023-02-23T15:41:17.538Z,10.60
2023-02-23T15:43:47.482Z,10.60
2023-02-23T15:46:26.071Z,10.50
2023-02-23T15:49:00.705Z,10.50
2023-02-23T15:51:37.500Z,10.50
2023-02-23T15:54:16.969Z,10.50
2023-02-23T15:56:54.578Z,10.50
2023-02-23T15:59:30.968Z,10.40
2023-02-23T16:02:03.870Z,10.30
2023-02-23T16:04:42.282Z,10.30
2023-02-23T16:07:19.691Z,10.20
2023-02-23T16:09:55.120Z,10.20
2023-02-23T16:12:31.938Z,10.10
2023-02-23T16:15:04.750Z,10.10
2023-02-23T16:17:43.569Z,10.10
2023-02-23T16:20:19.516Z,10.10
2023-02-23T16:22:54.726Z,10.10
2023-02-23T16:25:28.351Z,10.00
2023-02-23T16:28:03.164Z,10.00
2023-02-23T16:30:43.020Z,10.00
2023-02-23T16:33:22.793Z,9.90
2023-02-23T16:35:55.833Z,9.90
2023-02-23T16:38:29.312Z,9.80
2023-02-23T16:40:57.392Z,9.80
2023-02-23T16:43:25.723Z,9.80
2023-02-23T16:45:55.181Z,9.80
2023-02-23T16:48:24.190Z,9.70
2023-02-23T16:50:52.404Z,9.70
2023-02-23T16:53:20.258Z,9.70
2023-02-23T16:55:53.522Z,9.60
2023-02-23T16:58:26.113Z,9.60
2023-02-23T17:00:55.660Z,9.60
2023-02-23T17:03:26.397Z,9.60
2023-02-23T17:05:54.861Z,9.60
2023-02-23T17:08:22.878Z,9.50
2023-02-23T17:10:55.782Z,9.50
2023-02-23T17:13:26.655Z,9.50
2023-02-23T17:15:57.679Z,9.40
2023-02-23T17:18:28.321Z,9.40
2023-02-23T17:20:59.437Z,9.40
2023-02-23T17:23:38.924Z,9.30
2023-02-23T17:26:07.842Z,9.20
2023-02-23T17:28:36.274Z,9.20
2023-02-23T17:31:07.329Z,9.10
2023-02-23T17:33:36.527Z,9.00
2023-02-23T17:36:08.229Z,9.00
2023-02-23T17:38:36.224Z,8.90
2023-02-23T17:41:06.916Z,8.90
2023-02-23T17:43:35.528Z,8.80
2023-02-23T17:46:05.406Z,8.80
2023-02-23T17:48:35.448Z,8.80
2023-02-23T17:51:08.287Z,8.80
2023-02-23T17:53:36.972Z,8.80
2023-02-23T17:56:05.856Z,8.80
2023-02-23T17:58:34.072Z,8.70
2023-02-23T18:01:05.967Z,8.70
2023-02-23T18:03:36.991Z,8.70
2023-02-23T18:06:07.781Z,8.70
2023-02-23T18:08:36.225Z,8.70
2023-02-23T18:11:05.199Z,8.70
2023-02-23T18:13:34.209Z,8.60
2023-02-23T18:16:09.401Z,8.60
2023-02-23T18:18:39.822Z,8.60
2023-02-23T18:21:19.276Z,8.60
2023-02-23T18:23:48.036Z,8.60
2023-02-23T18:26:19.393Z,8.60
2023-02-23T18:28:48.364Z,8.60
2023-02-23T18:31:21.909Z,8.60
2023-02-23T18:33:52.858Z,8.60
2023-02-23T18:36:25.977Z,8.60
2023-02-23T18:38:54.499Z,8.50
2023-02-23T18:41:22.890Z,8.50
2023-02-23T18:43:50.884Z,8.50
2023-02-23T18:46:22.836Z,8.40
2023-02-23T18:48:52.212Z,8.50
2023-02-23T18:51:20.960Z,8.50
2023-02-23T18:53:50.163Z,8.40
2023-02-23T18:56:22.717Z,8.40
2023-02-23T18:58:52.186Z,8.40
2023-02-23T19:01:26.636Z,8.40
2023-02-23T19:03:57.979Z,8.40
2023-02-23T19:06:26.651Z,8.40
2023-02-23T19:08:59.350Z,8.40
2023-02-23T19:11:30.877Z,8.40
2023-02-23T19:14:01.307Z,8.40
2023-02-23T19:16:33.048Z,8.30
2023-02-23T19:19:03.838Z,8.30
2023-02-23T19:21:32.535Z,8.30
2023-02-23T19:24:02.747Z,8.20
2023-02-23T19:26:33.548Z,8.20
2023-02-23T19:29:02.097Z,8.30
2023-02-23T19:31:31.461Z,8.20
2023-02-23T19:33:59.638Z,8.30
2023-02-23T19:36:31.614Z,8.30
2023-02-23T19:39:05.818Z,8.30
2023-02-23T19:41:35.406Z,8.30
2023-02-23T19:44:03.486Z,8.20
2023-02-23T19:46:33.009Z,8.20
2023-02-23T19:49:01.512Z,8.10
2023-02-23T19:51:30.027Z,8.10
2023-02-23T19:53:59.683Z,8.10
2023-02-23T19:56:29.437Z,8.10
2023-02-23T19:58:58.861Z,8.10
2023-02-23T20:01:28.529Z,8.00
2023-02-23T20:04:02.145Z,7.90
2023-02-23T20:06:34.476Z,7.90
2023-02-23T20:09:05.547Z,8.00
2023-02-23T20:11:34.039Z,8.90
2023-02-23T20:14:03.261Z,7.90
2023-02-23T20:16:31.257Z,7.80
2023-02-23T20:19:00.947Z,7.80
2023-02-23T20:21:32.215Z,7.80
2023-02-23T20:24:01.447Z,7.80
2023-02-23T20:26:35.284Z,7.80
2023-02-23T20:29:04.574Z,7.80
2023-02-23T20:31:35.767Z,7.70
2023-02-23T20:34:10.801Z,7.80
2023-02-23T20:36:40.009Z,7.80
2023-02-23T20:39:10.256Z,7.80
2023-02-23T20:41:43.206Z,7.70
2023-02-23T20:44:12.582Z,7.80
2023-02-23T20:46:40.856Z,7.80
2023-02-23T20:49:11.477Z,7.70
2023-02-23T20:51:40.806Z,7.70
2023-02-23T20:54:11.620Z,7.70
2023-02-23T20:56:41.556Z,7.60
2023-02-23T20:59:11.103Z,7.60
2023-02-23T21:01:40.701Z,7.60
2023-02-23T21:04:11.556Z,7.70
2023-02-23T21:06:39.427Z,7.60
2023-02-23T21:09:12.464Z,7.60
2023-02-23T21:11:40.378Z,7.60
2023-02-23T21:14:08.384Z,7.50
2023-02-23T21:16:40.779Z,7.50
2023-02-23T21:19:13.777Z,7.50
2023-02-23T21:21:45.108Z,7.50
2023-02-23T21:24:15.769Z,7.60
2023-02-23T21:26:44.749Z,7.50
2023-02-23T21:29:14.901Z,7.60
2023-02-23T21:31:43.331Z,7.50
2023-02-23T21:34:15.362Z,7.60
2023-02-23T21:36:43.661Z,7.60
2023-02-23T21:39:12.018Z,7.50
2023-02-23T21:41:39.956Z,7.60
2023-02-23T21:44:09.886Z,7.50
2023-02-23T21:46:38.011Z,7.50
2023-02-23T21:49:09.516Z,7.50
2023-02-23T21:51:39.616Z,7.50
2023-02-23T21:54:07.525Z,7.50
2023-02-23T21:56:36.945Z,7.60
2023-02-23T21:59:08.131Z,7.60
2023-02-23T22:01:39.233Z,7.60
2023-02-23T22:04:10.191Z,7.60
2023-02-23T22:06:42.965Z,7.60
2023-02-23T22:09:12.569Z,7.50
2023-02-23T22:11:46.669Z,7.50
2023-02-23T22:14:17.866Z,7.50
2023-02-23T22:16:46.390Z,7.50
2023-02-23T22:19:14.660Z,7.50
2023-02-23T22:21:45.615Z,7.50
2023-02-23T22:24:15.673Z,7.50
2023-02-23T22:26:50.310Z,7.40
2023-02-23T22:29:18.350Z,7.40
2023-02-23T22:31:46.403Z,7.40
2023-02-23T22:34:18.190Z,7.40
2023-02-23T22:36:48.298Z,7.40
2023-02-23T22:39:18.206Z,7.40
2023-02-23T22:41:46.671Z,7.30
2023-02-23T22:44:18.925Z,7.30
2023-02-23T22:46:48.812Z,7.40
2023-02-23T22:49:19.804Z,7.40
2023-02-23T22:51:50.343Z,7.40
2023-02-23T22:54:18.560Z,7.40
2023-02-23T22:56:46.855Z,7.40
2023-02-23T22:59:17.405Z,7.40
2023-02-23T23:01:47.344Z,7.40
2023-02-23T23:04:15.383Z,7.40
2023-02-23T23:06:44.252Z,7.30
2023-02-23T23:09:16.124Z,7.30
2023-02-23T23:11:44.338Z,7.30
2023-02-23T23:14:13.645Z,7.30
2023-02-23T23:16:47.809Z,7.30
2023-02-23T23:19:19.026Z,7.10
2023-02-23T23:21:47.092Z,6.90
2023-02-23T23:24:16.580Z,6.70
2023-02-23T23:26:48.125Z,6.50
2023-02-23T23:29:16.231Z,6.40
2023-02-23T23:31:46.352Z,6.10
2023-02-23T23:34:17.011Z,5.90
2023-02-23T23:36:49.061Z,5.70
2023-02-23T23:39:20.663Z,5.60
2023-02-23T23:41:50.631Z,5.50
2023-02-23T23:44:21.728Z,5.40
2023-02-23T23:46:51.557Z,5.30
2023-02-23T23:49:25.409Z,5.30
2023-02-23T23:51:56.123Z,5.20
2023-02-23T23:54:29.031Z,5.20
2023-02-23T23:56:57.717Z,5.20
2023-02-23T23:59:27.489Z,5.10
